Terminal Aerodrome Forecast
Issued by NWS Chicago, IL

Home | Current Version | Previous Version | Graphics & Text | Print | Product List | Glossary On
Versions: 1 2 3 4 5 6 7 8 9 10 11 12 13 14 15 16 17 18 19 20 21 22 23 24 25 26
000
FTUS43 KLOT 260530
TAFRFD
TAF
KRFD 260530Z 2606/2706 16006KT 6SM BR SCT070 BKN250
      TEMPO 2608/2612 3SM BR
     FM261400 21010KT P6SM SCT040 BKN250
     FM270100 17005KT P6SM SCT250=

USA.gov is the U.S. government's official web portal to all federal, state and local government web resources and services.